sensor_id;sensor_type;location;lat;lon;timestamp;P1;durP1;ratioP1;P2;durP2;ratioP2
7377;SDS011;3730;50.856;12.776;2023-02-28T00:00:07;10.07;;;6.23;;
7377;SDS011;3730;50.856;12.776;2023-02-28T00:02:35;7.83;;;5.73;;
7377;SDS011;3730;50.856;12.776;2023-02-28T00:05:01;11.97;;;6.30;;
7377;SDS011;3730;50.856;12.776;2023-02-28T00:07:28;8.23;;;6.00;;
7377;SDS011;3730;50.856;12.776;2023-02-28T00:09:54;6.13;;;5.50;;
7377;SDS011;3730;50.856;12.776;2023-02-28T00:12:20;6.07;;;5.10;;
7377;SDS011;3730;50.856;12.776;2023-02-28T00:14:46;6.83;;;5.40;;
7377;SDS011;3730;50.856;12.776;2023-02-28T00:17:12;7.93;;;6.03;;
7377;SDS011;3730;50.856;12.776;2023-02-28T00:19:38;9.47;;;6.33;;
7377;SDS011;3730;50.856;12.776;2023-02-28T00:22:04;6.90;;;5.13;;
7377;SDS011;3730;50.856;12.776;2023-02-28T00:24:30;6.37;;;5.00;;
7377;SDS011;3730;50.856;12.776;2023-02-28T00:26:56;8.67;;;5.87;;
7377;SDS011;3730;50.856;12.776;2023-02-28T00:29:22;9.80;;;6.30;;
7377;SDS011;3730;50.856;12.776;2023-02-28T00:31:48;7.97;;;5.83;;
7377;SDS011;3730;50.856;12.776;2023-02-28T00:34:14;9.10;;;6.13;;
7377;SDS011;3730;50.856;12.776;2023-02-28T00:36:40;8.67;;;6.23;;
7377;SDS011;3730;50.856;12.776;2023-02-28T00:39:10;9.20;;;6.20;;
7377;SDS011;3730;50.856;12.776;2023-02-28T00:41:36;7.63;;;6.00;;
7377;SDS011;3730;50.856;12.776;2023-02-28T00:44:02;7.13;;;5.27;;
7377;SDS011;3730;50.856;12.776;2023-02-28T00:46:28;7.17;;;5.73;;
7377;SDS011;3730;50.856;12.776;2023-02-28T00:48:54;6.57;;;5.40;;
7377;SDS011;3730;50.856;12.776;2023-02-28T00:51:20;8.00;;;5.60;;
7377;SDS011;3730;50.856;12.776;2023-02-28T00:53:46;10.00;;;5.83;;
7377;SDS011;3730;50.856;12.776;2023-02-28T00:56:12;7.00;;;5.47;;
7377;SDS011;3730;50.856;12.776;2023-02-28T00:58:38;7.87;;;5.63;;
7377;SDS011;3730;50.856;12.776;2023-02-28T01:01:05;6.97;;;5.03;;
7377;SDS011;3730;50.856;12.776;2023-02-28T01:03:31;7.40;;;4.80;;
7377;SDS011;3730;50.856;12.776;2023-02-28T01:05:57;7.50;;;5.33;;
7377;SDS011;3730;50.856;12.776;2023-02-28T01:08:23;8.07;;;4.93;;
7377;SDS011;3730;50.856;12.776;2023-02-28T01:10:51;7.07;;;5.23;;
7377;SDS011;3730;50.856;12.776;2023-02-28T01:13:17;7.77;;;5.57;;
7377;SDS011;3730;50.856;12.776;2023-02-28T01:15:45;5.97;;;4.90;;
7377;SDS011;3730;50.856;12.776;2023-02-28T01:18:13;7.50;;;5.10;;
7377;SDS011;3730;50.856;12.776;2023-02-28T01:20:39;7.83;;;5.37;;
7377;SDS011;3730;50.856;12.776;2023-02-28T01:23:05;8.13;;;5.50;;
7377;SDS011;3730;50.856;12.776;2023-02-28T01:25:33;8.63;;;5.77;;
7377;SDS011;3730;50.856;12.776;2023-02-28T01:28:00;9.23;;;5.80;;
7377;SDS011;3730;50.856;12.776;2023-02-28T01:30:25;6.30;;;4.77;;
7377;SDS011;3730;50.856;12.776;2023-02-28T01:32:52;6.40;;;5.30;;
7377;SDS011;3730;50.856;12.776;2023-02-28T01:35:18;7.23;;;5.10;;
7377;SDS011;3730;50.856;12.776;2023-02-28T01:37:44;7.83;;;4.93;;
7377;SDS011;3730;50.856;12.776;2023-02-28T01:40:11;8.97;;;6.00;;
7377;SDS011;3730;50.856;12.776;2023-02-28T01:42:37;5.73;;;4.47;;
7377;SDS011;3730;50.856;12.776;2023-02-28T01:47:36;7.17;;;5.50;;
7377;SDS011;3730;50.856;12.776;2023-02-28T01:50:05;6.13;;;4.63;;
7377;SDS011;3730;50.856;12.776;2023-02-28T01:52:33;6.20;;;5.20;;
7377;SDS011;3730;50.856;12.776;2023-02-28T01:55:00;6.13;;;5.07;;
7377;SDS011;3730;50.856;12.776;2023-02-28T01:57:41;9.47;;;5.40;;
7377;SDS011;3730;50.856;12.776;2023-02-28T02:00:08;7.40;;;5.70;;
7377;SDS011;3730;50.856;12.776;2023-02-28T02:02:35;11.67;;;5.53;;
7377;SDS011;3730;50.856;12.776;2023-02-28T02:05:09;5.87;;;4.93;;
7377;SDS011;3730;50.856;12.776;2023-02-28T02:07:37;6.70;;;5.13;;
7377;SDS011;3730;50.856;12.776;2023-02-28T02:10:14;7.27;;;5.60;;
7377;SDS011;3730;50.856;12.776;2023-02-28T02:15:27;9.13;;;5.23;;
7377;SDS011;3730;50.856;12.776;2023-02-28T02:17:57;7.70;;;5.13;;
7377;SDS011;3730;50.856;12.776;2023-02-28T02:25:29;7.00;;;5.27;;
7377;SDS011;3730;50.856;12.776;2023-02-28T02:39:02;6.73;;;5.03;;
7377;SDS011;3730;50.856;12.776;2023-02-28T02:43:43;7.17;;;5.20;;
7377;SDS011;3730;50.856;12.776;2023-02-28T02:46:14;8.47;;;5.60;;
7377;SDS011;3730;50.856;12.776;2023-02-28T02:48:41;7.03;;;5.23;;
7377;SDS011;3730;50.856;12.776;2023-02-28T02:51:10;6.90;;;5.03;;
7377;SDS011;3730;50.856;12.776;2023-02-28T02:53:55;8.20;;;5.70;;
7377;SDS011;3730;50.856;12.776;2023-02-28T02:56:25;7.40;;;5.40;;
7377;SDS011;3730;50.856;12.776;2023-02-28T02:58:54;8.03;;;5.87;;
7377;SDS011;3730;50.856;12.776;2023-02-28T03:01:26;8.70;;;5.70;;
7377;SDS011;3730;50.856;12.776;2023-02-28T03:04:02;8.53;;;5.83;;
7377;SDS011;3730;50.856;12.776;2023-02-28T03:06:32;9.53;;;5.83;;
7377;SDS011;3730;50.856;12.776;2023-02-28T03:08:57;7.67;;;6.00;;
7377;SDS011;3730;50.856;12.776;2023-02-28T03:11:25;8.77;;;6.10;;
7377;SDS011;3730;50.856;12.776;2023-02-28T03:16:33;11.23;;;6.17;;
7377;SDS011;3730;50.856;12.776;2023-02-28T03:22:45;9.40;;;6.53;;
7377;SDS011;3730;50.856;12.776;2023-02-28T03:25:27;11.93;;;6.00;;
7377;SDS011;3730;50.856;12.776;2023-02-28T03:30:36;6.93;;;5.67;;
7377;SDS011;3730;50.856;12.776;2023-02-28T03:33:11;7.87;;;5.77;;
7377;SDS011;3730;50.856;12.776;2023-02-28T03:35:45;8.63;;;6.20;;
7377;SDS011;3730;50.856;12.776;2023-02-28T03:41:02;9.50;;;6.30;;
7377;SDS011;3730;50.856;12.776;2023-02-28T03:43:33;11.77;;;6.47;;
7377;SDS011;3730;50.856;12.776;2023-02-28T03:46:04;8.90;;;6.23;;
7377;SDS011;3730;50.856;12.776;2023-02-28T03:51:12;8.10;;;6.20;;
7377;SDS011;3730;50.856;12.776;2023-02-28T03:53:43;7.60;;;5.70;;
7377;SDS011;3730;50.856;12.776;2023-02-28T03:56:20;8.80;;;6.43;;
7377;SDS011;3730;50.856;12.776;2023-02-28T03:59:10;9.10;;;6.73;;
7377;SDS011;3730;50.856;12.776;2023-02-28T04:01:42;9.20;;;6.77;;
7377;SDS011;3730;50.856;12.776;2023-02-28T04:04:10;9.57;;;6.50;;
7377;SDS011;3730;50.856;12.776;2023-02-28T04:06:37;13.13;;;6.60;;
7377;SDS011;3730;50.856;12.776;2023-02-28T04:09:03;8.97;;;6.97;;
7377;SDS011;3730;50.856;12.776;2023-02-28T04:11:34;11.10;;;6.93;;
7377;SDS011;3730;50.856;12.776;2023-02-28T04:14:18;11.00;;;7.67;;
7377;SDS011;3730;50.856;12.776;2023-02-28T04:16:44;12.43;;;8.40;;
7377;SDS011;3730;50.856;12.776;2023-02-28T04:19:10;12.17;;;9.20;;
7377;SDS011;3730;50.856;12.776;2023-02-28T04:24:04;12.13;;;10.17;;
7377;SDS011;3730;50.856;12.776;2023-02-28T04:26:34;13.60;;;10.30;;
7377;SDS011;3730;50.856;12.776;2023-02-28T04:29:02;16.30;;;11.00;;
7377;SDS011;3730;50.856;12.776;2023-02-28T04:31:29;14.47;;;10.90;;
7377;SDS011;3730;50.856;12.776;2023-02-28T04:33:56;13.80;;;11.53;;
7377;SDS011;3730;50.856;12.776;2023-02-28T04:36:22;19.50;;;12.00;;
7377;SDS011;3730;50.856;12.776;2023-02-28T04:38:48;16.70;;;12.40;;
7377;SDS011;3730;50.856;12.776;2023-02-28T04:41:14;16.70;;;12.10;;
7377;SDS011;3730;50.856;12.776;2023-02-28T04:43:40;17.40;;;11.73;;
7377;SDS011;3730;50.856;12.776;2023-02-28T04:46:06;15.13;;;11.63;;
7377;SDS011;3730;50.856;12.776;2023-02-28T04:48:34;16.70;;;12.60;;
7377;SDS011;3730;50.856;12.776;2023-02-28T04:51:01;15.10;;;11.70;;
7377;SDS011;3730;50.856;12.776;2023-02-28T04:53:28;16.43;;;12.23;;
7377;SDS011;3730;50.856;12.776;2023-02-28T04:55:54;14.57;;;11.80;;
7377;SDS011;3730;50.856;12.776;2023-02-28T04:58:20;15.67;;;11.40;;
7377;SDS011;3730;50.856;12.776;2023-02-28T05:00:49;18.20;;;12.30;;
7377;SDS011;3730;50.856;12.776;2023-02-28T05:03:15;15.17;;;11.57;;
7377;SDS011;3730;50.856;12.776;2023-02-28T05:05:41;17.20;;;11.90;;
7377;SDS011;3730;50.856;12.776;2023-02-28T05:08:06;18.00;;;12.10;;
7377;SDS011;3730;50.856;12.776;2023-02-28T05:10:32;23.67;;;14.13;;
7377;SDS011;3730;50.856;12.776;2023-02-28T05:12:58;18.27;;;12.47;;
7377;SDS011;3730;50.856;12.776;2023-02-28T05:15:23;18.10;;;12.40;;
7377;SDS011;3730;50.856;12.776;2023-02-28T05:17:49;17.00;;;12.53;;
7377;SDS011;3730;50.856;12.776;2023-02-28T05:20:15;18.90;;;13.37;;
7377;SDS011;3730;50.856;12.776;2023-02-28T05:22:41;20.50;;;14.73;;
7377;SDS011;3730;50.856;12.776;2023-02-28T05:25:09;24.33;;;17.10;;
7377;SDS011;3730;50.856;12.776;2023-02-28T05:27:37;27.27;;;19.60;;
7377;SDS011;3730;50.856;12.776;2023-02-28T05:30:03;22.07;;;16.83;;
7377;SDS011;3730;50.856;12.776;2023-02-28T05:32:31;16.80;;;12.83;;
7377;SDS011;3730;50.856;12.776;2023-02-28T05:34:56;17.57;;;13.53;;
7377;SDS011;3730;50.856;12.776;2023-02-28T05:37:22;19.17;;;12.90;;
7377;SDS011;3730;50.856;12.776;2023-02-28T05:39:48;18.13;;;11.83;;
7377;SDS011;3730;50.856;12.776;2023-02-28T05:42:13;16.13;;;12.33;;
7377;SDS011;3730;50.856;12.776;2023-02-28T05:44:39;20.13;;;12.50;;
7377;SDS011;3730;50.856;12.776;2023-02-28T05:47:05;21.23;;;12.13;;
7377;SDS011;3730;50.856;12.776;2023-02-28T05:49:30;19.90;;;13.83;;
7377;SDS011;3730;50.856;12.776;2023-02-28T05:51:56;17.73;;;12.90;;
7377;SDS011;3730;50.856;12.776;2023-02-28T05:54:21;19.17;;;13.27;;
7377;SDS011;3730;50.856;12.776;2023-02-28T05:56:47;16.93;;;13.07;;
7377;SDS011;3730;50.856;12.776;2023-02-28T05:59:13;19.43;;;13.83;;
7377;SDS011;3730;50.856;12.776;2023-02-28T06:01:40;17.77;;;13.17;;
7377;SDS011;3730;50.856;12.776;2023-02-28T06:04:16;28.37;;;17.23;;
7377;SDS011;3730;50.856;12.776;2023-02-28T06:06:44;44.13;;;23.37;;
7377;SDS011;3730;50.856;12.776;2023-02-28T06:09:11;45.17;;;22.60;;
7377;SDS011;3730;50.856;12.776;2023-02-28T06:11:36;58.60;;;28.53;;
7377;SDS011;3730;50.856;12.776;2023-02-28T06:14:02;51.87;;;26.07;;
7377;SDS011;3730;50.856;12.776;2023-02-28T06:16:29;42.50;;;21.20;;
7377;SDS011;3730;50.856;12.776;2023-02-28T06:18:59;34.43;;;18.77;;
7377;SDS011;3730;50.856;12.776;2023-02-28T06:21:27;27.00;;;17.03;;
7377;SDS011;3730;50.856;12.776;2023-02-28T06:23:53;24.67;;;16.57;;
7377;SDS011;3730;50.856;12.776;2023-02-28T06:26:20;30.30;;;16.83;;
7377;SDS011;3730;50.856;12.776;2023-02-28T06:28:46;25.03;;;16.00;;
7377;SDS011;3730;50.856;12.776;2023-02-28T06:31:13;25.00;;;15.67;;
7377;SDS011;3730;50.856;12.776;2023-02-28T06:33:40;34.27;;;15.80;;
7377;SDS011;3730;50.856;12.776;2023-02-28T06:36:07;20.90;;;14.13;;
7377;SDS011;3730;50.856;12.776;2023-02-28T06:38:34;23.10;;;15.53;;
7377;SDS011;3730;50.856;12.776;2023-02-28T06:41:01;20.07;;;14.73;;
7377;SDS011;3730;50.856;12.776;2023-02-28T06:43:28;21.30;;;14.67;;
7377;SDS011;3730;50.856;12.776;2023-02-28T06:45:55;20.40;;;13.87;;
7377;SDS011;3730;50.856;12.776;2023-02-28T06:48:21;18.53;;;14.00;;
7377;SDS011;3730;50.856;12.776;2023-02-28T06:50:47;19.20;;;13.80;;
7377;SDS011;3730;50.856;12.776;2023-02-28T06:53:13;22.00;;;14.60;;
7377;SDS011;3730;50.856;12.776;2023-02-28T06:55:39;19.93;;;14.10;;
7377;SDS011;3730;50.856;12.776;2023-02-28T06:58:05;18.10;;;13.90;;
7377;SDS011;3730;50.856;12.776;2023-02-28T07:00:43;20.57;;;14.40;;
7377;SDS011;3730;50.856;12.776;2023-02-28T07:03:10;22.60;;;14.23;;
7377;SDS011;3730;50.856;12.776;2023-02-28T07:05:37;18.50;;;13.70;;
7377;SDS011;3730;50.856;12.776;2023-02-28T07:08:05;17.73;;;12.27;;
7377;SDS011;3730;50.856;12.776;2023-02-28T07:10:31;21.67;;;13.73;;
7377;SDS011;3730;50.856;12.776;2023-02-28T07:12:58;18.07;;;13.13;;
7377;SDS011;3730;50.856;12.776;2023-02-28T07:15:24;16.60;;;12.73;;
7377;SDS011;3730;50.856;12.776;2023-02-28T07:17:50;21.33;;;14.20;;
7377;SDS011;3730;50.856;12.776;2023-02-28T07:20:16;18.17;;;12.87;;
7377;SDS011;3730;50.856;12.776;2023-02-28T07:22:42;20.67;;;12.90;;
7377;SDS011;3730;50.856;12.776;2023-02-28T07:25:08;19.80;;;12.83;;
7377;SDS011;3730;50.856;12.776;2023-02-28T07:27:34;19.43;;;13.27;;
7377;SDS011;3730;50.856;12.776;2023-02-28T07:29:59;21.37;;;13.57;;
7377;SDS011;3730;50.856;12.776;2023-02-28T07:32:28;19.87;;;12.10;;
7377;SDS011;3730;50.856;12.776;2023-02-28T07:34:54;19.97;;;12.93;;
7377;SDS011;3730;50.856;12.776;2023-02-28T07:37:20;16.37;;;11.53;;
7377;SDS011;3730;50.856;12.776;2023-02-28T07:39:45;17.20;;;11.73;;
7377;SDS011;3730;50.856;12.776;2023-02-28T07:42:11;17.70;;;12.10;;
7377;SDS011;3730;50.856;12.776;2023-02-28T07:44:40;20.87;;;12.43;;
7377;SDS011;3730;50.856;12.776;2023-02-28T07:47:10;16.77;;;12.13;;
7377;SDS011;3730;50.856;12.776;2023-02-28T07:49:36;20.87;;;12.37;;
7377;SDS011;3730;50.856;12.776;2023-02-28T07:52:03;19.47;;;12.00;;
7377;SDS011;3730;50.856;12.776;2023-02-28T07:54:32;18.33;;;12.10;;
7377;SDS011;3730;50.856;12.776;2023-02-28T07:56:58;17.67;;;11.20;;
7377;SDS011;3730;50.856;12.776;2023-02-28T07:59:24;18.03;;;11.53;;
7377;SDS011;3730;50.856;12.776;2023-02-28T08:01:50;16.23;;;11.50;;
7377;SDS011;3730;50.856;12.776;2023-02-28T08:04:16;18.57;;;11.90;;
7377;SDS011;3730;50.856;12.776;2023-02-28T08:06:42;18.60;;;12.00;;
7377;SDS011;3730;50.856;12.776;2023-02-28T08:09:08;14.07;;;11.03;;
7377;SDS011;3730;50.856;12.776;2023-02-28T08:11:34;16.43;;;11.77;;
7377;SDS011;3730;50.856;12.776;2023-02-28T08:14:00;16.00;;;11.57;;
7377;SDS011;3730;50.856;12.776;2023-02-28T08:16:25;16.53;;;11.17;;
7377;SDS011;3730;50.856;12.776;2023-02-28T08:18:51;16.27;;;10.43;;
7377;SDS011;3730;50.856;12.776;2023-02-28T08:21:18;16.33;;;10.03;;
7377;SDS011;3730;50.856;12.776;2023-02-28T08:23:45;16.17;;;10.37;;
7377;SDS011;3730;50.856;12.776;2023-02-28T08:26:15;18.63;;;10.40;;
7377;SDS011;3730;50.856;12.776;2023-02-28T08:28:42;19.93;;;10.23;;
7377;SDS011;3730;50.856;12.776;2023-02-28T08:31:11;14.97;;;9.73;;
7377;SDS011;3730;50.856;12.776;2023-02-28T08:33:39;13.73;;;9.80;;
7377;SDS011;3730;50.856;12.776;2023-02-28T08:36:05;14.60;;;9.20;;
7377;SDS011;3730;50.856;12.776;2023-02-28T08:38:32;14.73;;;9.47;;
7377;SDS011;3730;50.856;12.776;2023-02-28T08:40:58;15.83;;;9.83;;
7377;SDS011;3730;50.856;12.776;2023-02-28T08:43:32;14.60;;;8.53;;
7377;SDS011;3730;50.856;12.776;2023-02-28T08:45:58;14.80;;;9.17;;
7377;SDS011;3730;50.856;12.776;2023-02-28T08:48:26;14.30;;;8.93;;
7377;SDS011;3730;50.856;12.776;2023-02-28T08:50:56;12.63;;;8.83;;
7377;SDS011;3730;50.856;12.776;2023-02-28T08:53:23;14.20;;;9.07;;
7377;SDS011;3730;50.856;12.776;2023-02-28T08:55:56;13.80;;;9.37;;
7377;SDS011;3730;50.856;12.776;2023-02-28T08:58:25;13.00;;;9.10;;
7377;SDS011;3730;50.856;12.776;2023-02-28T09:00:51;13.33;;;9.10;;
7377;SDS011;3730;50.856;12.776;2023-02-28T09:03:18;12.90;;;8.90;;
7377;SDS011;3730;50.856;12.776;2023-02-28T09:05:56;12.63;;;8.70;;
7377;SDS011;3730;50.856;12.776;2023-02-28T09:08:23;15.47;;;9.33;;
7377;SDS011;3730;50.856;12.776;2023-02-28T09:10:50;14.90;;;10.20;;
7377;SDS011;3730;50.856;12.776;2023-02-28T09:13:16;13.20;;;8.90;;
7377;SDS011;3730;50.856;12.776;2023-02-28T09:15:42;12.30;;;9.03;;
7377;SDS011;3730;50.856;12.776;2023-02-28T09:18:08;14.17;;;8.70;;
7377;SDS011;3730;50.856;12.776;2023-02-28T09:20:34;12.67;;;8.67;;
7377;SDS011;3730;50.856;12.776;2023-02-28T09:23:02;12.70;;;8.67;;
7377;SDS011;3730;50.856;12.776;2023-02-28T09:25:27;13.23;;;9.00;;
7377;SDS011;3730;50.856;12.776;2023-02-28T09:27:53;14.00;;;9.17;;
7377;SDS011;3730;50.856;12.776;2023-02-28T09:30:18;14.97;;;8.53;;
7377;SDS011;3730;50.856;12.776;2023-02-28T09:32:44;14.50;;;8.90;;
7377;SDS011;3730;50.856;12.776;2023-02-28T09:35:16;13.00;;;8.33;;
7377;SDS011;3730;50.856;12.776;2023-02-28T09:37:43;13.73;;;8.43;;
7377;SDS011;3730;50.856;12.776;2023-02-28T09:40:09;11.07;;;7.87;;
7377;SDS011;3730;50.856;12.776;2023-02-28T09:42:37;12.07;;;7.10;;
7377;SDS011;3730;50.856;12.776;2023-02-28T09:45:06;15.93;;;8.30;;
7377;SDS011;3730;50.856;12.776;2023-02-28T09:47:47;9.70;;;7.50;;
7377;SDS011;3730;50.856;12.776;2023-02-28T09:52:58;12.77;;;7.50;;
7377;SDS011;3730;50.856;12.776;2023-02-28T09:57:50;11.97;;;8.07;;
7377;SDS011;3730;50.856;12.776;2023-02-28T10:02:48;12.53;;;8.20;;
7377;SDS011;3730;50.856;12.776;2023-02-28T10:05:23;12.63;;;7.80;;
7377;SDS011;3730;50.856;12.776;2023-02-28T10:10:21;9.33;;;6.77;;
7377;SDS011;3730;50.856;12.776;2023-02-28T10:12:48;13.07;;;8.07;;
7377;SDS011;3730;50.856;12.776;2023-02-28T10:15:16;11.80;;;7.33;;
7377;SDS011;3730;50.856;12.776;2023-02-28T10:17:44;10.50;;;6.87;;
7377;SDS011;3730;50.856;12.776;2023-02-28T10:20:12;13.30;;;7.50;;
7377;SDS011;3730;50.856;12.776;2023-02-28T10:25:22;12.73;;;7.77;;
7377;SDS011;3730;50.856;12.776;2023-02-28T10:27:49;12.03;;;7.93;;
7377;SDS011;3730;50.856;12.776;2023-02-28T10:30:15;11.07;;;7.53;;
7377;SDS011;3730;50.856;12.776;2023-02-28T10:32:43;11.23;;;7.13;;
7377;SDS011;3730;50.856;12.776;2023-02-28T10:35:16;9.50;;;6.80;;
7377;SDS011;3730;50.856;12.776;2023-02-28T10:37:45;12.17;;;7.17;;
7377;SDS011;3730;50.856;12.776;2023-02-28T10:43:01;12.57;;;7.93;;
7377;SDS011;3730;50.856;12.776;2023-02-28T10:45:33;9.20;;;7.13;;
7377;SDS011;3730;50.856;12.776;2023-02-28T10:48:44;10.33;;;7.57;;
7377;SDS011;3730;50.856;12.776;2023-02-28T10:50:51;11.07;;;7.53;;
7377;SDS011;3730;50.856;12.776;2023-02-28T10:55:58;10.10;;;7.37;;
7377;SDS011;3730;50.856;12.776;2023-02-28T10:58:27;14.77;;;8.07;;
7377;SDS011;3730;50.856;12.776;2023-02-28T11:00:53;11.33;;;7.07;;
7377;SDS011;3730;50.856;12.776;2023-02-28T11:03:33;10.60;;;7.23;;
7377;SDS011;3730;50.856;12.776;2023-02-28T11:06:04;13.20;;;7.60;;
7377;SDS011;3730;50.856;12.776;2023-02-28T11:08:30;11.30;;;8.10;;
7377;SDS011;3730;50.856;12.776;2023-02-28T11:10:57;16.57;;;8.20;;
7377;SDS011;3730;50.856;12.776;2023-02-28T11:13:28;11.90;;;7.47;;
7377;SDS011;3730;50.856;12.776;2023-02-28T11:15:56;11.93;;;7.90;;
7377;SDS011;3730;50.856;12.776;2023-02-28T11:20:49;11.33;;;7.77;;
7377;SDS011;3730;50.856;12.776;2023-02-28T11:23:16;14.07;;;7.40;;
7377;SDS011;3730;50.856;12.776;2023-02-28T11:25:52;11.67;;;7.53;;
7377;SDS011;3730;50.856;12.776;2023-02-28T11:28:26;11.10;;;7.30;;
7377;SDS011;3730;50.856;12.776;2023-02-28T11:33:41;11.83;;;7.67;;
7377;SDS011;3730;50.856;12.776;2023-02-28T11:36:11;14.13;;;8.23;;
7377;SDS011;3730;50.856;12.776;2023-02-28T11:38:38;12.13;;;8.27;;
7377;SDS011;3730;50.856;12.776;2023-02-28T11:43:46;13.03;;;8.13;;
7377;SDS011;3730;50.856;12.776;2023-02-28T11:47:04;12.03;;;8.03;;
7377;SDS011;3730;50.856;12.776;2023-02-28T11:51:47;15.50;;;8.83;;
7377;SDS011;3730;50.856;12.776;2023-02-28T11:56:50;13.07;;;7.70;;
7377;SDS011;3730;50.856;12.776;2023-02-28T12:02:23;13.03;;;7.87;;
7377;SDS011;3730;50.856;12.776;2023-02-28T12:05:10;13.03;;;8.40;;
7377;SDS011;3730;50.856;12.776;2023-02-28T12:07:47;12.37;;;8.07;;
7377;SDS011;3730;50.856;12.776;2023-02-28T12:15:33;13.63;;;8.50;;
7377;SDS011;3730;50.856;12.776;2023-02-28T12:18:24;13.20;;;7.87;;
7377;SDS011;3730;50.856;12.776;2023-02-28T12:23:55;15.77;;;8.27;;
7377;SDS011;3730;50.856;12.776;2023-02-28T12:29:09;12.70;;;8.43;;
7377;SDS011;3730;50.856;12.776;2023-02-28T12:31:36;13.00;;;8.03;;
7377;SDS011;3730;50.856;12.776;2023-02-28T12:34:05;12.70;;;7.83;;
7377;SDS011;3730;50.856;12.776;2023-02-28T12:36:32;19.67;;;8.70;;
7377;SDS011;3730;50.856;12.776;2023-02-28T12:39:04;19.47;;;8.37;;
7377;SDS011;3730;50.856;12.776;2023-02-28T12:41:47;11.93;;;8.37;;
7377;SDS011;3730;50.856;12.776;2023-02-28T12:44:18;12.20;;;8.23;;
7377;SDS011;3730;50.856;12.776;2023-02-28T12:46:47;11.43;;;7.73;;
7377;SDS011;3730;50.856;12.776;2023-02-28T12:49:19;15.33;;;8.93;;
7377;SDS011;3730;50.856;12.776;2023-02-28T12:51:47;15.23;;;9.77;;
7377;SDS011;3730;50.856;12.776;2023-02-28T12:56:54;15.93;;;8.83;;
7377;SDS011;3730;50.856;12.776;2023-02-28T12:59:27;14.40;;;9.10;;
7377;SDS011;3730;50.856;12.776;2023-02-28T13:04:43;8.93;;;7.27;;
7377;SDS011;3730;50.856;12.776;2023-02-28T13:09:57;10.80;;;8.20;;
7377;SDS011;3730;50.856;12.776;2023-02-28T13:12:25;14.03;;;8.70;;
7377;SDS011;3730;50.856;12.776;2023-02-28T13:14:51;12.03;;;8.30;;
7377;SDS011;3730;50.856;12.776;2023-02-28T13:17:27;12.03;;;8.07;;
7377;SDS011;3730;50.856;12.776;2023-02-28T13:22:20;14.03;;;8.77;;
7377;SDS011;3730;50.856;12.776;2023-02-28T13:24:48;15.03;;;8.47;;
7377;SDS011;3730;50.856;12.776;2023-02-28T13:29:41;14.40;;;8.63;;
7377;SDS011;3730;50.856;12.776;2023-02-28T13:34:39;11.37;;;8.97;;
7377;SDS011;3730;50.856;12.776;2023-02-28T13:47:39;15.50;;;9.43;;
7377;SDS011;3730;50.856;12.776;2023-02-28T13:50:14;12.67;;;9.10;;
7377;SDS011;3730;50.856;12.776;2023-02-28T14:06:38;17.20;;;10.07;;
7377;SDS011;3730;50.856;12.776;2023-02-28T14:11:57;15.30;;;10.30;;
7377;SDS011;3730;50.856;12.776;2023-02-28T14:17:01;14.63;;;10.47;;
7377;SDS011;3730;50.856;12.776;2023-02-28T14:19:32;15.33;;;10.20;;
7377;SDS011;3730;50.856;12.776;2023-02-28T14:22:21;16.13;;;10.43;;
7377;SDS011;3730;50.856;12.776;2023-02-28T14:30:52;15.90;;;10.60;;
7377;SDS011;3730;50.856;12.776;2023-02-28T14:38:25;15.03;;;12.10;;
7377;SDS011;3730;50.856;12.776;2023-02-28T14:40:56;18.20;;;12.07;;
7377;SDS011;3730;50.856;12.776;2023-02-28T14:43:25;15.67;;;11.30;;
7377;SDS011;3730;50.856;12.776;2023-02-28T14:45:52;15.90;;;10.33;;
7377;SDS011;3730;50.856;12.776;2023-02-28T14:48:20;17.20;;;10.17;;
7377;SDS011;3730;50.856;12.776;2023-02-28T14:50:54;13.77;;;11.40;;
7377;SDS011;3730;50.856;12.776;2023-02-28T14:53:23;13.03;;;10.67;;
7377;SDS011;3730;50.856;12.776;2023-02-28T14:55:50;13.67;;;10.53;;
7377;SDS011;3730;50.856;12.776;2023-02-28T14:58:31;17.30;;;11.10;;
7377;SDS011;3730;50.856;12.776;2023-02-28T15:01:00;12.63;;;9.67;;
7377;SDS011;3730;50.856;12.776;2023-02-28T15:03:37;22.27;;;12.33;;
7377;SDS011;3730;50.856;12.776;2023-02-28T15:06:04;18.30;;;10.37;;
7377;SDS011;3730;50.856;12.776;2023-02-28T15:08:31;16.13;;;10.83;;
7377;SDS011;3730;50.856;12.776;2023-02-28T15:13:44;16.47;;;10.43;;
7377;SDS011;3730;50.856;12.776;2023-02-28T15:16:15;13.97;;;10.50;;
7377;SDS011;3730;50.856;12.776;2023-02-28T15:18:59;15.10;;;10.33;;
7377;SDS011;3730;50.856;12.776;2023-02-28T15:21:27;22.87;;;12.90;;
7377;SDS011;3730;50.856;12.776;2023-02-28T15:23:58;13.53;;;10.33;;
7377;SDS011;3730;50.856;12.776;2023-02-28T15:26:27;13.60;;;10.23;;
7377;SDS011;3730;50.856;12.776;2023-02-28T15:28:59;15.47;;;10.50;;
7377;SDS011;3730;50.856;12.776;2023-02-28T15:31:27;16.23;;;10.53;;
7377;SDS011;3730;50.856;12.776;2023-02-28T15:33:57;16.60;;;11.10;;
7377;SDS011;3730;50.856;12.776;2023-02-28T15:36:25;21.33;;;13.80;;
7377;SDS011;3730;50.856;12.776;2023-02-28T15:38:52;20.30;;;10.87;;
7377;SDS011;3730;50.856;12.776;2023-02-28T15:41:35;15.10;;;10.60;;
7377;SDS011;3730;50.856;12.776;2023-02-28T15:49:24;14.40;;;11.17;;
7377;SDS011;3730;50.856;12.776;2023-02-28T15:51:51;18.70;;;10.57;;
7377;SDS011;3730;50.856;12.776;2023-02-28T15:54:24;14.70;;;11.27;;
7377;SDS011;3730;50.856;12.776;2023-02-28T15:56:53;15.17;;;10.80;;
7377;SDS011;3730;50.856;12.776;2023-02-28T15:59:29;19.60;;;11.80;;
7377;SDS011;3730;50.856;12.776;2023-02-28T16:04:28;19.97;;;12.47;;
7377;SDS011;3730;50.856;12.776;2023-02-28T16:09:25;19.50;;;13.37;;
7377;SDS011;3730;50.856;12.776;2023-02-28T16:11:53;19.50;;;12.53;;
7377;SDS011;3730;50.856;12.776;2023-02-28T16:14:21;25.83;;;17.10;;
7377;SDS011;3730;50.856;12.776;2023-02-28T16:16:52;18.77;;;12.47;;
7377;SDS011;3730;50.856;12.776;2023-02-28T16:19:19;18.07;;;12.80;;
7377;SDS011;3730;50.856;12.776;2023-02-28T16:21:45;19.97;;;13.03;;
7377;SDS011;3730;50.856;12.776;2023-02-28T16:24:11;18.23;;;12.53;;
7377;SDS011;3730;50.856;12.776;2023-02-28T16:26:38;18.17;;;12.13;;
7377;SDS011;3730;50.856;12.776;2023-02-28T16:29:05;17.77;;;12.57;;
7377;SDS011;3730;50.856;12.776;2023-02-28T16:31:32;17.13;;;12.07;;
7377;SDS011;3730;50.856;12.776;2023-02-28T16:33:59;23.13;;;14.57;;
7377;SDS011;3730;50.856;12.776;2023-02-28T16:36:25;19.13;;;13.30;;
7377;SDS011;3730;50.856;12.776;2023-02-28T16:38:53;18.33;;;12.40;;
7377;SDS011;3730;50.856;12.776;2023-02-28T16:41:20;20.17;;;14.40;;
7377;SDS011;3730;50.856;12.776;2023-02-28T16:43:47;18.90;;;13.90;;
7377;SDS011;3730;50.856;12.776;2023-02-28T16:46:14;21.40;;;14.47;;
7377;SDS011;3730;50.856;12.776;2023-02-28T16:48:41;20.67;;;14.40;;
7377;SDS011;3730;50.856;12.776;2023-02-28T16:51:16;20.97;;;13.73;;
7377;SDS011;3730;50.856;12.776;2023-02-28T16:53:43;19.87;;;14.20;;
7377;SDS011;3730;50.856;12.776;2023-02-28T16:56:12;18.57;;;13.43;;
7377;SDS011;3730;50.856;12.776;2023-02-28T16:58:40;19.73;;;14.57;;
7377;SDS011;3730;50.856;12.776;2023-02-28T17:01:06;21.83;;;14.53;;
7377;SDS011;3730;50.856;12.776;2023-02-28T17:03:32;22.33;;;14.63;;
7377;SDS011;3730;50.856;12.776;2023-02-28T17:05:58;22.40;;;14.93;;
7377;SDS011;3730;50.856;12.776;2023-02-28T17:08:24;18.87;;;14.57;;
7377;SDS011;3730;50.856;12.776;2023-02-28T17:10:50;22.20;;;14.83;;
7377;SDS011;3730;50.856;12.776;2023-02-28T17:13:16;22.87;;;15.00;;
7377;SDS011;3730;50.856;12.776;2023-02-28T17:15:42;21.27;;;15.10;;
7377;SDS011;3730;50.856;12.776;2023-02-28T17:18:13;22.40;;;15.33;;
7377;SDS011;3730;50.856;12.776;2023-02-28T17:20:40;23.03;;;15.40;;
7377;SDS011;3730;50.856;12.776;2023-02-28T17:23:07;20.73;;;14.77;;
7377;SDS011;3730;50.856;12.776;2023-02-28T17:25:33;20.87;;;14.40;;
7377;SDS011;3730;50.856;12.776;2023-02-28T17:27:59;22.90;;;15.10;;